sensor_id;sensor_type;location;lat;lon;timestamp;pressure;altitude;pressure_sealevel;temperature;humidity
57900;BME280;60605;53.716;19.940;2023-06-10T00:01:18;100570.58;;;17.82;58.43
57900;BME280;60605;53.716;19.940;2023-06-10T00:06:20;100572.20;;;17.73;57.91
57900;BME280;60605;53.716;19.940;2023-06-10T00:11:23;100571.23;;;17.63;57.68
57900;BME280;60605;53.716;19.940;2023-06-10T00:16:25;100570.77;;;17.54;57.49
57900;BME280;60605;53.716;19.940;2023-06-10T00:21:28;100569.42;;;17.44;57.24
57900;BME280;60605;53.716;19.940;2023-06-10T00:26:31;100570.26;;;17.36;57.16
57900;BME280;60605;53.716;19.940;2023-06-10T00:31:34;100567.77;;;17.28;57.25
57900;BME280;60605;53.716;19.940;2023-06-10T00:36:37;100571.90;;;17.20;57.12
57900;BME280;60605;53.716;19.940;2023-06-10T00:41:39;100578.64;;;17.09;57.11
57900;BME280;60605;53.716;19.940;2023-06-10T00:46:42;100588.71;;;17.01;56.94
57900;BME280;60605;53.716;19.940;2023-06-10T00:51:44;100594.27;;;16.91;56.95
57900;BME280;60605;53.716;19.940;2023-06-10T00:56:47;100596.09;;;16.79;57.12
57900;BME280;60605;53.716;19.940;2023-06-10T01:01:50;100599.65;;;16.70;57.13
57900;BME280;60605;53.716;19.940;2023-06-10T01:07:20;100602.36;;;16.63;57.08
57900;BME280;60605;53.716;19.940;2023-06-10T01:12:27;100599.40;;;16.56;56.96
57900;BME280;60605;53.716;19.940;2023-06-10T01:17:31;100602.05;;;16.48;56.72
57900;BME280;60605;53.716;19.940;2023-06-10T01:22:33;100604.29;;;16.41;56.71
57900;BME280;60605;53.716;19.940;2023-06-10T01:27:39;100606.15;;;16.35;56.61
57900;BME280;60605;53.716;19.940;2023-06-10T01:32:45;100613.79;;;16.28;56.50
57900;BME280;60605;53.716;19.940;2023-06-10T01:37:50;100617.75;;;16.22;56.55
57900;BME280;60605;53.716;19.940;2023-06-10T01:42:55;100621.00;;;16.16;56.79
57900;BME280;60605;53.716;19.940;2023-06-10T01:47:57;100623.68;;;16.13;56.94
57900;BME280;60605;53.716;19.940;2023-06-10T01:53:00;100627.60;;;16.09;57.06
57900;BME280;60605;53.716;19.940;2023-06-10T01:58:02;100633.39;;;16.03;57.31
57900;BME280;60605;53.716;19.940;2023-06-10T02:03:04;100638.55;;;15.97;57.41
57900;BME280;60605;53.716;19.940;2023-06-10T02:08:06;100643.24;;;15.91;57.52
57900;BME280;60605;53.716;19.940;2023-06-10T02:13:08;100654.35;;;15.84;57.68
57900;BME280;60605;53.716;19.940;2023-06-10T02:18:10;100658.45;;;15.78;57.89
57900;BME280;60605;53.716;19.940;2023-06-10T02:23:13;100660.41;;;15.73;58.05
57900;BME280;60605;53.716;19.940;2023-06-10T02:28:15;100663.48;;;15.70;58.15
57900;BME280;60605;53.716;19.940;2023-06-10T02:33:18;100663.15;;;15.68;58.53
57900;BME280;60605;53.716;19.940;2023-06-10T02:38:21;100662.70;;;15.69;58.50
57900;BME280;60605;53.716;19.940;2023-06-10T02:43:23;100664.19;;;15.72;58.40
57900;BME280;60605;53.716;19.940;2023-06-10T02:48:26;100665.52;;;15.76;58.28
57900;BME280;60605;53.716;19.940;2023-06-10T02:53:28;100664.53;;;15.80;58.06
57900;BME280;60605;53.716;19.940;2023-06-10T02:58:31;100666.91;;;15.84;57.77
57900;BME280;60605;53.716;19.940;2023-06-10T03:03:33;100672.15;;;15.89;57.52
57900;BME280;60605;53.716;19.940;2023-06-10T03:08:36;100673.40;;;15.94;57.20
57900;BME280;60605;53.716;19.940;2023-06-10T03:13:39;100679.70;;;15.97;57.12
57900;BME280;60605;53.716;19.940;2023-06-10T03:18:41;100685.07;;;16.00;56.92
57900;BME280;60605;53.716;19.940;2023-06-10T03:23:45;100689.49;;;16.07;56.64
57900;BME280;60605;53.716;19.940;2023-06-10T03:28:48;100692.25;;;16.28;56.11
57900;BME280;60605;53.716;19.940;2023-06-10T03:33:50;100696.60;;;16.67;55.24
57900;BME280;60605;53.716;19.940;2023-06-10T03:38:53;100710.64;;;17.21;54.23
57900;BME280;60605;53.716;19.940;2023-06-10T03:43:58;100712.27;;;18.06;52.20
57900;BME280;60605;53.716;19.940;2023-06-10T03:49:04;100712.31;;;18.94;49.79
57900;BME280;60605;53.716;19.940;2023-06-10T03:54:06;100713.98;;;19.58;48.04
57900;BME280;60605;53.716;19.940;2023-06-10T03:59:08;100716.40;;;20.27;46.78
57900;BME280;60605;53.716;19.940;2023-06-10T04:04:11;100718.31;;;20.94;44.88
57900;BME280;60605;53.716;19.940;2023-06-10T04:09:13;100718.89;;;21.13;44.00
57900;BME280;60605;53.716;19.940;2023-06-10T04:14:15;100719.10;;;21.59;43.35
57900;BME280;60605;53.716;19.940;2023-06-10T04:19:17;100722.73;;;21.98;42.26
57900;BME280;60605;53.716;19.940;2023-06-10T04:24:19;100722.73;;;22.57;41.56
57900;BME280;60605;53.716;19.940;2023-06-10T04:29:21;100724.61;;;23.11;40.23
57900;BME280;60605;53.716;19.940;2023-06-10T04:34:23;100732.38;;;23.37;39.34
57900;BME280;60605;53.716;19.940;2023-06-10T04:39:28;100734.12;;;23.66;39.19
57900;BME280;60605;53.716;19.940;2023-06-10T04:44:30;100734.76;;;24.17;38.52
57900;BME280;60605;53.716;19.940;2023-06-10T04:49:32;100734.60;;;24.72;37.58
57900;BME280;60605;53.716;19.940;2023-06-10T04:54:35;100734.44;;;24.98;36.81
57900;BME280;60605;53.716;19.940;2023-06-10T04:59:37;100737.71;;;25.21;36.32
57900;BME280;60605;53.716;19.940;2023-06-10T05:04:40;100743.66;;;25.41;35.45
57900;BME280;60605;53.716;19.940;2023-06-10T05:09:41;100750.25;;;25.80;35.38
57900;BME280;60605;53.716;19.940;2023-06-10T05:14:43;100753.30;;;26.50;34.62
57900;BME280;60605;53.716;19.940;2023-06-10T05:19:46;100757.42;;;26.93;33.04
57900;BME280;60605;53.716;19.940;2023-06-10T05:24:48;100765.84;;;26.96;32.64
57900;BME280;60605;53.716;19.940;2023-06-10T05:29:50;100773.33;;;26.98;33.06
57900;BME280;60605;53.716;19.940;2023-06-10T05:34:53;100774.68;;;27.42;32.57
57900;BME280;60605;53.716;19.940;2023-06-10T05:39:55;100770.70;;;27.88;31.40
57900;BME280;60605;53.716;19.940;2023-06-10T05:44:57;100772.30;;;28.09;30.59
57900;BME280;60605;53.716;19.940;2023-06-10T05:50:00;100773.70;;;28.11;31.07
57900;BME280;60605;53.716;19.940;2023-06-10T05:55:03;100780.56;;;28.52;30.39
57900;BME280;60605;53.716;19.940;2023-06-10T06:00:06;100783.83;;;28.56;30.17
57900;BME280;60605;53.716;19.940;2023-06-10T06:05:09;100783.40;;;29.02;30.17
57900;BME280;60605;53.716;19.940;2023-06-10T06:10:13;100785.60;;;29.76;29.50
57900;BME280;60605;53.716;19.940;2023-06-10T06:15:15;100781.94;;;30.31;28.68
57900;BME280;60605;53.716;19.940;2023-06-10T06:20:17;100780.68;;;30.69;28.01
57900;BME280;60605;53.716;19.940;2023-06-10T06:25:21;100782.52;;;31.09;27.48
57900;BME280;60605;53.716;19.940;2023-06-10T06:30:25;100787.03;;;30.82;27.27
57900;BME280;60605;53.716;19.940;2023-06-10T06:35:26;100784.91;;;30.87;27.45
57900;BME280;60605;53.716;19.940;2023-06-10T06:40:30;100782.88;;;30.91;27.56
57900;BME280;60605;53.716;19.940;2023-06-10T06:45:32;100780.63;;;31.32;27.49
57900;BME280;60605;53.716;19.940;2023-06-10T06:50:35;100783.30;;;32.12;27.31
57900;BME280;60605;53.716;19.940;2023-06-10T06:55:37;100789.15;;;33.01;26.04
57900;BME280;60605;53.716;19.940;2023-06-10T07:00:41;100796.75;;;33.65;26.23
57900;BME280;60605;53.716;19.940;2023-06-10T07:05:44;100800.48;;;34.21;24.76
57900;BME280;60605;53.716;19.940;2023-06-10T07:10:46;100805.58;;;33.90;24.20
57900;BME280;60605;53.716;19.940;2023-06-10T07:15:49;100802.66;;;33.61;24.23
57900;BME280;60605;53.716;19.940;2023-06-10T07:20:51;100806.71;;;33.38;24.24
57900;BME280;60605;53.716;19.940;2023-06-10T07:25:53;100808.02;;;33.34;24.54
57900;BME280;60605;53.716;19.940;2023-06-10T07:30:56;100809.02;;;33.33;24.40
57900;BME280;60605;53.716;19.940;2023-06-10T07:35:58;100811.08;;;33.48;25.08
57900;BME280;60605;53.716;19.940;2023-06-10T07:41:01;100819.61;;;34.11;24.47
57900;BME280;60605;53.716;19.940;2023-06-10T07:46:04;100822.54;;;34.47;23.86
57900;BME280;60605;53.716;19.940;2023-06-10T07:51:07;100828.61;;;34.48;22.75
57900;BME280;60605;53.716;19.940;2023-06-10T07:56:11;100827.70;;;34.68;22.70
57900;BME280;60605;53.716;19.940;2023-06-10T08:01:13;100830.69;;;35.42;22.54
57900;BME280;60605;53.716;19.940;2023-06-10T08:06:16;100834.83;;;36.25;21.96
57900;BME280;60605;53.716;19.940;2023-06-10T08:11:19;100838.45;;;36.43;21.11
57900;BME280;60605;53.716;19.940;2023-06-10T08:16:21;100837.13;;;36.31;21.39
57900;BME280;60605;53.716;19.940;2023-06-10T08:21:23;100837.77;;;36.30;21.47
57900;BME280;60605;53.716;19.940;2023-06-10T08:26:25;100836.73;;;36.51;21.04
57900;BME280;60605;53.716;19.940;2023-06-10T08:31:27;100842.45;;;36.29;20.54
57900;BME280;60605;53.716;19.940;2023-06-10T08:36:29;100848.91;;;35.93;20.72
57900;BME280;60605;53.716;19.940;2023-06-10T08:41:35;100845.61;;;35.39;20.42
57900;BME280;60605;53.716;19.940;2023-06-10T08:46:45;100842.48;;;34.38;20.84
57900;BME280;60605;53.716;19.940;2023-06-10T08:51:50;100842.24;;;33.46;21.61
57900;BME280;60605;53.716;19.940;2023-06-10T08:56:59;100846.49;;;32.93;21.85
57900;BME280;60605;53.716;19.940;2023-06-10T09:02:02;100848.11;;;32.73;22.23
57900;BME280;60605;53.716;19.940;2023-06-10T09:07:07;100844.48;;;32.93;22.45
57900;BME280;60605;53.716;19.940;2023-06-10T09:12:09;100846.24;;;33.54;22.01
57900;BME280;60605;53.716;19.940;2023-06-10T09:17:12;100847.73;;;33.96;21.91
57900;BME280;60605;53.716;19.940;2023-06-10T09:22:14;100851.34;;;34.09;22.05
57900;BME280;60605;53.716;19.940;2023-06-10T09:27:16;100849.25;;;34.16;22.05
57900;BME280;60605;53.716;19.940;2023-06-10T09:32:19;100848.25;;;34.63;22.36
57900;BME280;60605;53.716;19.940;2023-06-10T09:37:23;100852.03;;;34.69;21.79
57900;BME280;60605;53.716;19.940;2023-06-10T09:42:26;100847.58;;;34.34;22.28
57900;BME280;60605;53.716;19.940;2023-06-10T09:47:28;100843.10;;;34.18;22.46
57900;BME280;60605;53.716;19.940;2023-06-10T09:52:30;100843.15;;;34.47;22.48
57900;BME280;60605;53.716;19.940;2023-06-10T09:57:32;100845.55;;;34.29;22.32
57900;BME280;60605;53.716;19.940;2023-06-10T10:07:49;100846.16;;;32.21;23.62
57900;BME280;60605;53.716;19.940;2023-06-10T10:12:56;100848.33;;;30.69;24.66
57900;BME280;60605;53.716;19.940;2023-06-10T10:18:09;100835.79;;;29.18;26.98
57900;BME280;60605;53.716;19.940;2023-06-10T10:23:44;100827.29;;;28.30;28.28
57900;BME280;60605;53.716;19.940;2023-06-10T10:34:15;100824.08;;;26.96;29.47
57900;BME280;60605;53.716;19.940;2023-06-10T10:39:21;100825.19;;;26.60;30.24
57900;BME280;60605;53.716;19.940;2023-06-10T10:44:24;100822.02;;;26.18;29.88
57900;BME280;60605;53.716;19.940;2023-06-10T10:49:27;100827.02;;;25.75;30.58
57900;BME280;60605;53.716;19.940;2023-06-10T10:54:34;100822.98;;;25.62;31.21
57900;BME280;60605;53.716;19.940;2023-06-10T11:04:51;100817.52;;;25.36;31.42
57900;BME280;60605;53.716;19.940;2023-06-10T11:15:09;100812.30;;;25.59;32.23
57900;BME280;60605;53.716;19.940;2023-06-10T11:20:12;100815.96;;;25.50;31.30
57900;BME280;60605;53.716;19.940;2023-06-10T11:25:15;100813.36;;;25.36;31.10
57900;BME280;60605;53.716;19.940;2023-06-10T11:30:19;100802.47;;;25.28;31.82
57900;BME280;60605;53.716;19.940;2023-06-10T11:35:23;100808.09;;;25.36;31.89
57900;BME280;60605;53.716;19.940;2023-06-10T11:40:26;100811.92;;;25.48;31.56
57900;BME280;60605;53.716;19.940;2023-06-10T11:45:31;100816.66;;;25.53;31.08
57900;BME280;60605;53.716;19.940;2023-06-10T11:50:33;100809.19;;;25.40;31.17
57900;BME280;60605;53.716;19.940;2023-06-10T11:55:47;100811.89;;;25.34;31.26
57900;BME280;60605;53.716;19.940;2023-06-10T12:00:51;100816.98;;;25.42;30.82
57900;BME280;60605;53.716;19.940;2023-06-10T12:06:04;100814.90;;;25.34;30.24
57900;BME280;60605;53.716;19.940;2023-06-10T12:11:07;100812.09;;;25.32;30.67
57900;BME280;60605;53.716;19.940;2023-06-10T12:16:12;100805.41;;;25.29;30.77
57900;BME280;60605;53.716;19.940;2023-06-10T12:21:24;100805.16;;;25.26;30.81
57900;BME280;60605;53.716;19.940;2023-06-10T12:26:42;100804.93;;;25.39;31.14
57900;BME280;60605;53.716;19.940;2023-06-10T12:31:57;100810.33;;;25.50;30.86
57900;BME280;60605;53.716;19.940;2023-06-10T12:37:02;100813.70;;;25.38;30.46
57900;BME280;60605;53.716;19.940;2023-06-10T12:42:06;100802.39;;;25.19;30.68
57900;BME280;60605;53.716;19.940;2023-06-10T12:47:12;100797.63;;;25.13;30.89
57900;BME280;60605;53.716;19.940;2023-06-10T12:52:16;100798.14;;;25.13;30.74
57900;BME280;60605;53.716;19.940;2023-06-10T12:57:18;100798.95;;;25.07;30.83
57900;BME280;60605;53.716;19.940;2023-06-10T13:02:21;100795.25;;;25.08;30.86
57900;BME280;60605;53.716;19.940;2023-06-10T13:07:25;100798.27;;;25.09;30.60
57900;BME280;60605;53.716;19.940;2023-06-10T13:12:30;100793.11;;;25.06;30.67
57900;BME280;60605;53.716;19.940;2023-06-10T13:17:50;100782.55;;;25.14;31.33
57900;BME280;60605;53.716;19.940;2023-06-10T13:22:55;100782.31;;;25.33;30.71
57900;BME280;60605;53.716;19.940;2023-06-10T13:27:58;100786.00;;;25.26;30.34
57900;BME280;60605;53.716;19.940;2023-06-10T13:33:01;100782.50;;;25.04;30.62
57900;BME280;60605;53.716;19.940;2023-06-10T13:38:07;100775.27;;;24.96;30.60
57900;BME280;60605;53.716;19.940;2023-06-10T13:43:09;100770.83;;;24.97;30.48
57900;BME280;60605;53.716;19.940;2023-06-10T13:48:13;100770.24;;;24.85;30.60
57900;BME280;60605;53.716;19.940;2023-06-10T13:53:16;100774.86;;;24.83;30.68
57900;BME280;60605;53.716;19.940;2023-06-10T13:58:18;100775.86;;;24.82;30.25
57900;BME280;60605;53.716;19.940;2023-06-10T14:03:20;100772.73;;;24.83;30.45
57900;BME280;60605;53.716;19.940;2023-06-10T14:08:23;100773.50;;;24.87;30.11
57900;BME280;60605;53.716;19.940;2023-06-10T14:13:25;100771.71;;;24.88;30.31
57900;BME280;60605;53.716;19.940;2023-06-10T14:18:27;100767.34;;;24.85;30.11
57900;BME280;60605;53.716;19.940;2023-06-10T14:23:29;100766.93;;;24.80;30.09
57900;BME280;60605;53.716;19.940;2023-06-10T14:28:32;100771.17;;;24.75;30.17
57900;BME280;60605;53.716;19.940;2023-06-10T14:33:34;100767.70;;;24.67;30.27
57900;BME280;60605;53.716;19.940;2023-06-10T14:38:37;100765.25;;;24.58;30.21
57900;BME280;60605;53.716;19.940;2023-06-10T14:43:40;100762.94;;;24.50;30.85
57900;BME280;60605;53.716;19.940;2023-06-10T14:48:42;100757.11;;;24.54;30.87
57900;BME280;60605;53.716;19.940;2023-06-10T14:53:44;100755.52;;;24.59;30.59
57900;BME280;60605;53.716;19.940;2023-06-10T14:58:47;100759.27;;;24.53;29.65
57900;BME280;60605;53.716;19.940;2023-06-10T15:03:50;100756.30;;;24.45;30.12
57900;BME280;60605;53.716;19.940;2023-06-10T15:08:53;100760.21;;;24.38;30.26
57900;BME280;60605;53.716;19.940;2023-06-10T15:13:54;100760.52;;;24.35;30.21
57900;BME280;60605;53.716;19.940;2023-06-10T15:18:57;100759.02;;;24.33;29.91
57900;BME280;60605;53.716;19.940;2023-06-10T15:23:59;100757.87;;;24.24;29.35
57900;BME280;60605;53.716;19.940;2023-06-10T15:29:02;100757.36;;;24.13;29.53
57900;BME280;60605;53.716;19.940;2023-06-10T15:34:06;100752.89;;;24.09;29.49
57900;BME280;60605;53.716;19.940;2023-06-10T15:39:10;100753.02;;;24.08;29.65
57900;BME280;60605;53.716;19.940;2023-06-10T15:44:12;100755.42;;;24.08;29.77
57900;BME280;60605;53.716;19.940;2023-06-10T15:49:14;100757.20;;;24.07;29.97
57900;BME280;60605;53.716;19.940;2023-06-10T15:54:16;100767.80;;;24.06;29.90
57900;BME280;60605;53.716;19.940;2023-06-10T15:59:18;100770.98;;;23.97;29.63
57900;BME280;60605;53.716;19.940;2023-06-10T16:04:20;100773.61;;;23.84;29.35
57900;BME280;60605;53.716;19.940;2023-06-10T16:09:22;100780.21;;;23.73;29.51
57900;BME280;60605;53.716;19.940;2023-06-10T16:14:24;100780.46;;;23.68;29.64
57900;BME280;60605;53.716;19.940;2023-06-10T16:19:27;100780.23;;;23.62;29.36
57900;BME280;60605;53.716;19.940;2023-06-10T16:24:29;100785.52;;;23.55;29.14
57900;BME280;60605;53.716;19.940;2023-06-10T16:29:31;100785.30;;;23.50;29.58
57900;BME280;60605;53.716;19.940;2023-06-10T16:34:34;100788.77;;;23.49;29.84
57900;BME280;60605;53.716;19.940;2023-06-10T16:39:36;100782.73;;;23.42;30.00
57900;BME280;60605;53.716;19.940;2023-06-10T16:44:39;100781.45;;;23.33;30.28
57900;BME280;60605;53.716;19.940;2023-06-10T16:49:41;100791.37;;;23.26;31.02
57900;BME280;60605;53.716;19.940;2023-06-10T16:54:42;100793.02;;;23.24;31.23
57900;BME280;60605;53.716;19.940;2023-06-10T16:59:45;100790.55;;;23.17;30.90
57900;BME280;60605;53.716;19.940;2023-06-10T17:04:47;100799.02;;;23.07;30.99
57900;BME280;60605;53.716;19.940;2023-06-10T17:09:50;100798.42;;;22.95;31.41
57900;BME280;60605;53.716;19.940;2023-06-10T17:14:52;100804.41;;;22.84;31.75
57900;BME280;60605;53.716;19.940;2023-06-10T17:19:53;100811.80;;;22.71;32.20
57900;BME280;60605;53.716;19.940;2023-06-10T17:24:57;100810.09;;;22.59;32.66
57900;BME280;60605;53.716;19.940;2023-06-10T17:29:59;100821.60;;;22.46;33.22
57900;BME280;60605;53.716;19.940;2023-06-10T17:35:01;100826.67;;;22.33;33.83
57900;BME280;60605;53.716;19.940;2023-06-10T17:40:05;100827.30;;;22.20;33.62
57900;BME280;60605;53.716;19.940;2023-06-10T17:45:07;100832.48;;;22.06;34.27
57900;BME280;60605;53.716;19.940;2023-06-10T17:50:10;100834.75;;;21.90;34.52
57900;BME280;60605;53.716;19.940;2023-06-10T17:55:14;100834.19;;;21.73;34.86
57900;BME280;60605;53.716;19.940;2023-06-10T18:00:17;100839.51;;;21.56;35.33
57900;BME280;60605;53.716;19.940;2023-06-10T18:05:20;100845.38;;;21.40;35.80
57900;BME280;60605;53.716;19.940;2023-06-10T18:10:22;100843.50;;;21.25;36.45
57900;BME280;60605;53.716;19.940;2023-06-10T18:15:24;100848.80;;;21.07;36.87
57900;BME280;60605;53.716;19.940;2023-06-10T18:20:31;100858.41;;;20.90;37.32
57900;BME280;60605;53.716;19.940;2023-06-10T18:25:33;100860.68;;;20.73;37.72
57900;BME280;60605;53.716;19.940;2023-06-10T18:30:35;100862.56;;;20.53;38.07
57900;BME280;60605;53.716;19.940;2023-06-10T18:35:38;100869.70;;;20.34;38.77
57900;BME280;60605;53.716;19.940;2023-06-10T18:40:41;100877.36;;;20.15;39.08
57900;BME280;60605;53.716;19.940;2023-06-10T18:45:44;100883.73;;;19.98;39.39
57900;BME280;60605;53.716;19.940;2023-06-10T18:50:48;100897.23;;;19.82;39.85
57900;BME280;60605;53.716;19.940;2023-06-10T18:55:50;100899.05;;;19.67;40.02
57900;BME280;60605;53.716;19.940;2023-06-10T19:00:54;100907.23;;;19.51;40.26
57900;BME280;60605;53.716;19.940;2023-06-10T19:05:58;100913.83;;;19.35;40.42
57900;BME280;60605;53.716;19.940;2023-06-10T19:11:02;100920.05;;;19.21;40.55
57900;BME280;60605;53.716;19.940;2023-06-10T19:16:05;100931.88;;;19.07;40.62
57900;BME280;60605;53.716;19.940;2023-06-10T19:21:10;100937.46;;;18.93;40.75
57900;BME280;60605;53.716;19.940;2023-06-10T19:26:13;100941.64;;;18.80;40.94
57900;BME280;60605;53.716;19.940;2023-06-10T19:31:15;100943.88;;;18.66;41.09
57900;BME280;60605;53.716;19.940;2023-06-10T19:36:18;100949.48;;;18.52;41.38
57900;BME280;60605;53.716;19.940;2023-06-10T19:41:23;100956.47;;;18.38;41.55
57900;BME280;60605;53.716;19.940;2023-06-10T19:46:25;100963.18;;;18.24;41.68
57900;BME280;60605;53.716;19.940;2023-06-10T19:51:27;100966.35;;;18.11;41.67
57900;BME280;60605;53.716;19.940;2023-06-10T19:56:32;100971.00;;;18.00;41.75
57900;BME280;60605;53.716;19.940;2023-06-10T20:01:35;100973.42;;;17.90;41.80
57900;BME280;60605;53.716;19.940;2023-06-10T20:06:39;100977.69;;;17.82;41.91
57900;BME280;60605;53.716;19.940;2023-06-10T20:11:43;100978.98;;;17.71;42.08
57900;BME280;60605;53.716;19.940;2023-06-10T20:16:47;100983.16;;;17.61;42.30
57900;BME280;60605;53.716;19.940;2023-06-10T20:21:50;100988.30;;;17.49;42.54
57900;BME280;60605;53.716;19.940;2023-06-10T20:26:54;100994.16;;;17.38;42.60
57900;BME280;60605;53.716;19.940;2023-06-10T20:31:56;101001.97;;;17.28;42.69
57900;BME280;60605;53.716;19.940;2023-06-10T20:36:59;101008.21;;;17.18;42.81
57900;BME280;60605;53.716;19.940;2023-06-10T20:42:04;101010.02;;;17.09;42.99
57900;BME280;60605;53.716;19.940;2023-06-10T20:47:09;101009.69;;;17.01;42.98
57900;BME280;60605;53.716;19.940;2023-06-10T20:52:12;101012.25;;;16.94;43.00
57900;BME280;60605;53.716;19.940;2023-06-10T20:57:14;101010.89;;;16.92;43.03
57900;BME280;60605;53.716;19.940;2023-06-10T21:02:18;101011.20;;;16.85;43.31
57900;BME280;60605;53.716;19.940;2023-06-10T21:07:21;101013.05;;;16.75;43.36
57900;BME280;60605;53.716;19.940;2023-06-10T21:12:23;101014.91;;;16.65;43.56
57900;BME280;60605;53.716;19.940;2023-06-10T21:17:26;101017.36;;;16.56;43.68
57900;BME280;60605;53.716;19.940;2023-06-10T21:22:30;101017.95;;;16.45;44.11
57900;BME280;60605;53.716;19.940;2023-06-10T21:27:34;101021.05;;;16.35;44.39
57900;BME280;60605;53.716;19.940;2023-06-10T21:32:37;101023.77;;;16.27;44.66
57900;BME280;60605;53.716;19.940;2023-06-10T21:37:39;101025.05;;;16.17;45.16
57900;BME280;60605;53.716;19.940;2023-06-10T21:42:41;101032.83;;;16.07;45.51
57900;BME280;60605;53.716;19.940;2023-06-10T21:47:43;101035.13;;;15.96;45.70
57900;BME280;60605;53.716;19.940;2023-06-10T21:52:46;101037.48;;;15.85;46.08
57900;BME280;60605;53.716;19.940;2023-06-10T21:57:49;101040.85;;;15.77;46.56
57900;BME280;60605;53.716;19.940;2023-06-10T22:02:51;101038.95;;;15.71;46.83
57900;BME280;60605;53.716;19.940;2023-06-10T22:07:54;101042.45;;;15.66;47.26
57900;BME280;60605;53.716;19.940;2023-06-10T22:12:56;101045.84;;;15.58;47.66
57900;BME280;60605;53.716;19.940;2023-06-10T22:17:58;101045.85;;;15.48;47.95
57900;BME280;60605;53.716;19.940;2023-06-10T22:23:00;101047.94;;;15.39;48.15
57900;BME280;60605;53.716;19.940;2023-06-10T22:28:03;101046.61;;;15.31;48.47
57900;BME280;60605;53.716;19.940;2023-06-10T22:33:06;101046.04;;;15.24;48.60
57900;BME280;60605;53.716;19.940;2023-06-10T22:38:11;101044.55;;;15.15;48.68
57900;BME280;60605;53.716;19.940;2023-06-10T22:43:13;101046.40;;;15.04;49.08
57900;BME280;60605;53.716;19.940;2023-06-10T22:48:15;101046.38;;;14.96;49.40
57900;BME280;60605;53.716;19.940;2023-06-10T22:53:17;101044.96;;;14.88;49.54
57900;BME280;60605;53.716;19.940;2023-06-10T22:58:19;101041.91;;;14.78;49.72
57900;BME280;60605;53.716;19.940;2023-06-10T23:03:22;101040.00;;;14.67;49.86
57900;BME280;60605;53.716;19.940;2023-06-10T23:08:24;101041.77;;;14.57;50.05
57900;BME280;60605;53.716;19.940;2023-06-10T23:13:27;101042.00;;;14.46;50.24
57900;BME280;60605;53.716;19.940;2023-06-10T23:18:29;101043.11;;;14.36;50.53
57900;BME280;60605;53.716;19.940;2023-06-10T23:23:32;101036.44;;;14.26;50.95
57900;BME280;60605;53.716;19.940;2023-06-10T23:28:35;101035.78;;;14.16;51.31
57900;BME280;60605;53.716;19.940;2023-06-10T23:33:37;101038.36;;;14.08;51.58
57900;BME280;60605;53.716;19.940;2023-06-10T23:38:40;101037.38;;;14.00;51.68
57900;BME280;60605;53.716;19.940;2023-06-10T23:43:42;101040.85;;;13.93;51.88
57900;BME280;60605;53.716;19.940;2023-06-10T23:48:44;101040.63;;;13.84;52.29
57900;BME280;60605;53.716;19.940;2023-06-10T23:53:46;101041.30;;;13.78;52.62
57900;BME280;60605;53.716;19.940;2023-06-10T23:58:49;101039.70;;;13.71;52.93
